Time;durP1;ratioP1;P1;durP2;ratioP2;P2;SDS_P1;SDS_P2;PMS_P1;PMS_P2;Temp;Humidity;BMP_temperature;BMP_pressure;BME280_temperature;BME280_humidity;BME280_pressure;Samples;Min_cycle;Max_cycle;Signal;HPM_P1;HPM_P2
2021/09/18 00:02:17;;;;;;;2.35;1.60;;;14.50;97.40;;;;;;5086532;28;20028;-66
2021/09/18 00:04:43;;;;;;;3.20;1.50;;;14.50;97.70;;;;;;5082246;28;20032;-66
2021/09/18 00:07:08;;;;;;;1.92;1.60;;;14.50;97.60;;;;;;5083661;28;20124;-66
2021/09/18 00:09:34;;;;;;;3.47;1.85;;;14.50;97.60;;;;;;5090347;28;20044;-66
2021/09/18 00:12:00;;;;;;;3.72;1.65;;;14.50;97.70;;;;;;5083260;28;20036;-66
2021/09/18 00:14:26;;;;;;;2.70;1.70;;;14.50;97.70;;;;;;5085346;28;20079;-67
2021/09/18 00:16:52;;;;;;;4.75;1.85;;;14.50;97.90;;;;;;5085285;28;20060;-66
2021/09/18 00:19:18;;;;;;;2.47;1.73;;;14.50;97.80;;;;;;5081085;28;20456;-66
2021/09/18 00:21:44;;;;;;;3.53;2.10;;;14.50;97.80;;;;;;5081277;28;20024;-66
2021/09/18 00:24:09;;;;;;;3.45;1.90;;;14.50;97.80;;;;;;5082355;28;20028;-67
2021/09/18 00:26:36;;;;;;;6.72;2.55;;;14.50;97.90;;;;;;5086069;28;20024;-66
2021/09/18 00:29:03;;;;;;;3.33;2.40;;;14.50;97.90;;;;;;5080864;28;20034;-67
2021/09/18 00:31:29;;;;;;;3.63;2.60;;;14.50;98.00;;;;;;5086016;28;20043;-67
2021/09/18 00:33:56;;;;;;;7.10;3.20;;;14.50;98.10;;;;;;5086770;28;20107;-66
2021/09/18 00:36:21;;;;;;;3.90;2.83;;;14.50;98.40;;;;;;5084562;28;20033;-66
2021/09/18 00:38:48;;;;;;;4.80;2.97;;;14.50;98.50;;;;;;5083454;28;20040;-67
2021/09/18 00:41:13;;;;;;;4.97;3.45;;;14.50;98.50;;;;;;5079588;28;20028;-67
2021/09/18 00:43:39;;;;;;;3.70;3.25;;;14.50;98.50;;;;;;5087237;28;20032;-67
2021/09/18 00:46:05;;;;;;;5.25;3.38;;;14.50;98.60;;;;;;5083212;28;20127;-66
2021/09/18 00:48:31;;;;;;;4.30;3.00;;;14.50;98.70;;;;;;5084995;28;20023;-66
2021/09/18 00:50:57;;;;;;;3.97;3.15;;;14.50;98.70;;;;;;5081645;28;20056;-66
2021/09/18 00:53:23;;;;;;;5.47;3.75;;;14.50;98.70;;;;;;5083424;28;20044;-66
2021/09/18 00:55:49;;;;;;;7.82;3.97;;;14.50;98.80;;;;;;5079192;28;20029;-66
2021/09/18 00:58:15;;;;;;;4.38;3.40;;;14.50;98.90;;;;;;5082817;28;20064;-66
2021/09/18 01:00:41;;;;;;;8.02;3.95;;;14.50;99.00;;;;;;5084351;28;20099;-67
2021/09/18 01:03:07;;;;;;;5.82;3.13;;;14.40;99.10;;;;;;5085500;28;20123;-67
2021/09/18 01:05:34;;;;;;;4.25;3.20;;;14.50;99.10;;;;;;5079501;28;20036;-66
2021/09/18 01:08:00;;;;;;;5.00;3.55;;;14.50;99.10;;;;;;5080624;28;20485;-67
2021/09/18 01:10:27;;;;;;;4.82;3.30;;;14.50;99.10;;;;;;5084252;28;20036;-67
2021/09/18 01:13:15;;;;;;;5.07;3.00;;;14.50;99.20;;;;;;5087036;28;20032;-67
2021/09/18 01:15:41;;;;;;;4.18;3.00;;;14.50;99.20;;;;;;5087551;28;20386;-67
2021/09/18 01:18:09;;;;;;;6.45;3.33;;;14.50;99.20;;;;;;5082980;28;20056;-67
2021/09/18 01:20:35;;;;;;;3.88;3.30;;;14.50;99.20;;;;;;5084781;28;20020;-66
2021/09/18 01:23:02;;;;;;;5.22;3.38;;;14.50;99.30;;;;;;5087055;28;20016;-67
2021/09/18 01:25:30;;;;;;;4.00;3.15;;;14.50;99.20;;;;;;5083491;28;20032;-67
2021/09/18 01:27:56;;;;;;;4.57;3.40;;;14.50;99.30;;;;;;5081484;28;20054;-67
2021/09/18 01:30:24;;;;;;;4.50;3.60;;;14.50;99.30;;;;;;5084459;28;20075;-67
2021/09/18 01:32:51;;;;;;;4.68;3.40;;;14.50;99.30;;;;;;5086404;28;20062;-66
2021/09/18 01:35:16;;;;;;;3.90;3.38;;;14.60;99.40;;;;;;5090369;28;20477;-67
2021/09/18 01:37:46;;;;;;;6.05;3.10;;;14.60;99.30;;;;;;5082738;28;20043;-67
2021/09/18 01:40:23;;;;;;;4.93;2.92;;;14.60;99.30;;;;;;5085026;28;20432;-67
2021/09/18 01:42:49;;;;;;;5.13;3.58;;;14.60;99.40;;;;;;5086964;28;20035;-67
2021/09/18 01:45:15;;;;;;;5.53;3.88;;;14.60;99.40;;;;;;5080329;28;20470;-67
2021/09/18 01:47:50;;;;;;;3.08;2.75;;;14.50;99.70;;;;;;5087311;28;20098;-67
2021/09/18 01:50:46;;;;;;;6.50;4.55;;;14.50;99.60;;;;;;5081261;28;20051;-67
2021/09/18 01:53:12;;;;;;;11.40;4.28;;;14.50;99.80;;;;;;5084902;28;20051;-67
2021/09/18 01:55:39;;;;;;;5.20;3.75;;;14.50;99.80;;;;;;5081735;28;20051;-66
2021/09/18 01:58:06;;;;;;;5.45;3.72;;;14.50;99.80;;;;;;5081718;28;20058;-67
2021/09/18 02:00:35;;;;;;;4.75;3.45;;;14.50;99.70;;;;;;5086389;28;20117;-67
2021/09/18 02:03:01;;;;;;;6.15;4.18;;;14.50;99.80;;;;;;5082218;28;20024;-67
2021/09/18 02:05:27;;;;;;;7.18;4.60;;;14.50;99.90;;;;;;5081892;28;20039;-67
2021/09/18 02:07:54;;;;;;;6.70;4.72;;;14.50;99.90;;;;;;5080991;28;20097;-66
2021/09/18 02:10:25;;;;;;;5.25;4.32;;;14.50;99.90;;;;;;5085912;28;20042;-67
2021/09/18 02:12:52;;;;;;;6.20;4.30;;;14.50;99.90;;;;;;5083457;28;20036;-67
2021/09/18 02:15:21;;;;;;;6.25;3.90;;;14.50;99.90;;;;;;5084861;28;20385;-66
2021/09/18 02:17:47;;;;;;;6.78;4.15;;;14.50;99.90;;;;;;5082596;28;20028;-67
2021/09/18 02:20:17;;;;;;;5.15;4.07;;;14.50;99.90;;;;;;5085398;28;20119;-69
2021/09/18 02:22:43;;;;;;;6.95;4.82;;;14.50;99.90;;;;;;5082473;28;20031;-67
2021/09/18 02:25:10;;;;;;;8.15;5.13;;;14.50;99.90;;;;;;5084025;28;20032;-66
2021/09/18 02:27:36;;;;;;;6.13;4.57;;;14.50;99.90;;;;;;5083675;28;20524;-67
2021/09/18 02:30:03;;;;;;;6.15;4.68;;;14.40;99.90;;;;;;5080816;28;20034;-67
2021/09/18 02:32:29;;;;;;;6.75;4.55;;;14.40;99.90;;;;;;5077567;28;20033;-67
2021/09/18 02:34:54;;;;;;;5.55;4.05;;;14.40;99.90;;;;;;5075938;28;20039;-67
2021/09/18 02:37:20;;;;;;;6.10;4.63;;;14.40;99.90;;;;;;5080973;28;20545;-66
2021/09/18 02:39:46;;;;;;;5.72;4.38;;;14.50;99.90;;;;;;5085111;28;20059;-66
2021/09/18 02:42:12;;;;;;;5.93;4.65;;;14.50;99.90;;;;;;5082813;28;20116;-67
2021/09/18 02:44:38;;;;;;;7.75;5.22;;;14.50;99.90;;;;;;5081658;28;20096;-66
2021/09/18 02:47:04;;;;;;;5.85;4.28;;;14.50;99.90;;;;;;5082296;28;20047;-67
2021/09/18 02:49:30;;;;;;;7.88;5.15;;;14.40;99.90;;;;;;5081888;28;20097;-66
2021/09/18 02:51:55;;;;;;;7.72;5.30;;;14.40;99.90;;;;;;5082403;28;20024;-67
2021/09/18 02:54:21;;;;;;;8.57;5.45;;;14.40;99.90;;;;;;5082293;28;20050;-67
2021/09/18 02:56:47;;;;;;;8.25;5.13;;;14.50;99.90;;;;;;5081825;28;20046;-67
2021/09/18 02:59:12;;;;;;;7.60;4.68;;;14.40;99.90;;;;;;5078397;28;20103;-67
2021/09/18 03:01:38;;;;;;;6.43;4.78;;;14.40;99.90;;;;;;5081896;28;20086;-66
2021/09/18 03:04:04;;;;;;;8.73;5.22;;;14.40;99.90;;;;;;5083954;28;20052;-67
2021/09/18 03:06:30;;;;;;;6.63;4.55;;;14.40;99.90;;;;;;5080484;28;20025;-66
2021/09/18 03:08:55;;;;;;;7.47;5.18;;;14.50;99.90;;;;;;5082635;28;20039;-67
2021/09/18 03:11:22;;;;;;;7.07;5.35;;;14.50;99.90;;;;;;5082841;28;20059;-67
2021/09/18 03:13:48;;;;;;;7.20;5.20;;;14.40;99.90;;;;;;5082486;28;20032;-67
2021/09/18 03:16:14;;;;;;;6.25;4.38;;;14.40;99.90;;;;;;5079926;28;20462;-67
2021/09/18 03:18:39;;;;;;;5.65;3.90;;;14.50;99.90;;;;;;5085685;28;20363;-67
2021/09/18 03:21:05;;;;;;;9.65;4.93;;;14.50;99.90;;;;;;5083387;28;20063;-67
2021/09/18 03:23:31;;;;;;;7.45;5.05;;;14.50;99.90;;;;;;5081312;28;20035;-66
2021/09/18 03:25:57;;;;;;;7.05;4.90;;;14.50;99.90;;;;;;5077881;28;20028;-67
2021/09/18 03:28:23;;;;;;;6.88;4.80;;;14.50;99.90;;;;;;5081827;28;20029;-67
2021/09/18 03:30:48;;;;;;;6.55;5.25;;;14.50;99.90;;;;;;5086563;28;20032;-66
2021/09/18 03:33:14;;;;;;;8.52;4.68;;;14.50;99.90;;;;;;5081428;28;20081;-66
2021/09/18 03:35:42;;;;;;;7.90;5.40;;;14.50;99.90;;;;;;5077136;28;20486;-67
2021/09/18 03:38:11;;;;;;;7.70;5.57;;;14.40;99.90;;;;;;5082513;28;20047;-66
2021/09/18 03:40:37;;;;;;;9.20;5.25;;;14.40;99.90;;;;;;5078142;28;20047;-67
2021/09/18 03:43:03;;;;;;;6.25;4.60;;;14.40;99.90;;;;;;5081587;28;20032;-67
2021/09/18 03:45:29;;;;;;;8.00;5.22;;;14.40;99.90;;;;;;5075181;28;20106;-67
2021/09/18 03:47:54;;;;;;;6.88;4.90;;;14.50;99.90;;;;;;5080278;28;20063;-66
2021/09/18 03:50:20;;;;;;;7.93;5.10;;;14.50;99.90;;;;;;5082974;28;20036;-67
2021/09/18 03:52:46;;;;;;;8.05;5.10;;;14.50;99.90;;;;;;5082246;28;20044;-66
2021/09/18 03:55:11;;;;;;;6.55;4.55;;;14.50;99.90;;;;;;5083329;28;20047;-67
2021/09/18 03:57:38;;;;;;;7.22;4.65;;;14.50;99.90;;;;;;5082488;28;20032;-66
2021/09/18 04:00:06;;;;;;;5.25;4.20;;;14.50;99.90;;;;;;5084712;28;20035;-67
2021/09/18 04:02:31;;;;;;;7.95;4.93;;;14.50;99.90;;;;;;5079615;28;20024;-67
2021/09/18 04:04:57;;;;;;;7.32;4.65;;;14.50;99.90;;;;;;5079528;28;20024;-67
2021/09/18 04:07:23;;;;;;;7.22;4.38;;;14.50;99.90;;;;;;5084306;28;20031;-67
2021/09/18 04:09:49;;;;;;;6.32;4.70;;;14.50;99.90;;;;;;5085699;28;20033;-67
2021/09/18 04:12:15;;;;;;;6.40;4.75;;;14.50;99.90;;;;;;5086821;28;20032;-67
2021/09/18 04:14:41;;;;;;;6.10;4.90;;;14.50;99.90;;;;;;5085138;28;20034;-67
2021/09/18 04:17:07;;;;;;;6.97;4.63;;;14.50;99.90;;;;;;5079094;28;20490;-67
2021/09/18 04:19:33;;;;;;;5.43;4.10;;;14.50;99.90;;;;;;5084395;28;20028;-67
2021/09/18 04:21:58;;;;;;;7.20;4.85;;;14.60;99.90;;;;;;5084511;28;20045;-68
2021/09/18 04:24:24;;;;;;;5.97;4.82;;;14.60;99.90;;;;;;5088788;28;20028;-67
2021/09/18 04:26:50;;;;;;;6.40;4.65;;;14.60;99.90;;;;;;5106212;28;20067;-67
2021/09/18 04:29:15;;;;;;;5.63;4.55;;;14.60;99.90;;;;;;5088580;28;20013;-67
2021/09/18 04:31:42;;;;;;;6.82;4.63;;;14.60;99.90;;;;;;5089427;28;20465;-67
2021/09/18 04:34:08;;;;;;;5.70;4.45;;;14.60;99.90;;;;;;5088421;28;20085;-67
2021/09/18 04:36:34;;;;;;;5.65;4.32;;;14.70;99.90;;;;;;5089336;28;20056;-67
2021/09/18 04:38:59;;;;;;;7.03;4.68;;;14.70;99.90;;;;;;5090318;28;20479;-67
2021/09/18 04:41:26;;;;;;;7.10;4.72;;;14.60;99.90;;;;;;5088823;28;20049;-67
2021/09/18 04:43:52;;;;;;;6.32;4.95;;;14.60;99.90;;;;;;5088173;28;20107;-67
2021/09/18 04:46:18;;;;;;;6.25;4.72;;;14.60;99.90;;;;;;5090065;28;20102;-68
2021/09/18 04:48:44;;;;;;;6.45;4.70;;;14.70;99.90;;;;;;5088658;28;20872;-68
2021/09/18 04:51:10;;;;;;;8.63;5.32;;;14.60;99.90;;;;;;5089235;28;20119;-68
2021/09/18 04:53:36;;;;;;;7.00;4.57;;;14.60;99.90;;;;;;5088030;28;20406;-67
2021/09/18 04:56:02;;;;;;;6.32;4.85;;;14.60;99.90;;;;;;5088888;28;20095;-67
2021/09/18 04:58:27;;;;;;;6.07;4.55;;;14.60;99.90;;;;;;5088914;28;20101;-67
2021/09/18 05:00:53;;;;;;;6.68;4.55;;;14.60;99.90;;;;;;5088047;28;20055;-67
2021/09/18 05:03:19;;;;;;;6.55;4.60;;;14.60;99.90;;;;;;5088386;28;20386;-67
2021/09/18 05:05:45;;;;;;;6.05;4.35;;;14.60;99.90;;;;;;5087589;28;20104;-67
2021/09/18 05:08:10;;;;;;;6.38;4.57;;;14.60;99.90;;;;;;5086768;28;20039;-67
2021/09/18 05:10:36;;;;;;;7.32;5.05;;;14.60;99.90;;;;;;5088493;28;20538;-67
2021/09/18 05:13:02;;;;;;;5.47;4.18;;;14.60;99.90;;;;;;5086386;28;20034;-67
2021/09/18 05:15:29;;;;;;;5.25;4.18;;;14.60;99.90;;;;;;5088775;28;20102;-67
2021/09/18 05:17:55;;;;;;;7.13;4.63;;;14.70;99.90;;;;;;5088041;28;20531;-68
2021/09/18 05:20:21;;;;;;;6.85;4.57;;;14.60;99.90;;;;;;5085999;28;20036;-68
2021/09/18 05:22:46;;;;;;;6.07;4.45;;;14.60;99.90;;;;;;5088522;28;20032;-67
2021/09/18 05:25:12;;;;;;;6.47;4.38;;;14.60;99.90;;;;;;5086963;28;20032;-67
2021/09/18 05:27:38;;;;;;;5.82;4.57;;;14.60;99.90;;;;;;5087661;28;20032;-68
2021/09/18 05:30:05;;;;;;;4.95;4.18;;;14.70;99.90;;;;;;5088750;28;20101;-68
2021/09/18 05:32:31;;;;;;;6.38;4.53;;;14.70;99.90;;;;;;5087094;28;20028;-67
2021/09/18 05:34:56;;;;;;;5.55;4.30;;;14.70;99.90;;;;;;5087600;28;20082;-67
2021/09/18 05:37:22;;;;;;;8.57;5.03;;;14.70;99.90;;;;;;5087108;28;20508;-68
2021/09/18 05:39:48;;;;;;;6.55;4.80;;;14.70;99.90;;;;;;5087424;28;20043;-67
2021/09/18 05:42:14;;;;;;;6.05;4.75;;;14.70;99.90;;;;;;5088579;28;20034;-67
2021/09/18 05:44:40;;;;;;;6.70;4.50;;;14.70;99.90;;;;;;5086738;28;20062;-67
2021/09/18 05:47:06;;;;;;;6.18;4.10;;;14.70;99.90;;;;;;5086285;28;20841;-67
2021/09/18 05:49:32;;;;;;;5.68;4.57;;;14.80;99.90;;;;;;5087742;28;20103;-67
2021/09/18 05:51:57;;;;;;;4.78;3.70;;;14.80;99.90;;;;;;5087845;28;20032;-67
2021/09/18 05:54:23;;;;;;;5.97;4.35;;;14.90;99.90;;;;;;5086207;28;20830;-67
2021/09/18 05:56:49;;;;;;;5.65;4.07;;;14.80;99.90;;;;;;5087494;28;20023;-67
2021/09/18 05:59:15;;;;;;;5.72;3.80;;;14.90;99.90;;;;;;5085631;28;20036;-67
2021/09/18 06:01:41;;;;;;;4.80;4.00;;;14.90;99.90;;;;;;5083950;28;20689;-67
2021/09/18 06:04:06;;;;;;;5.70;4.30;;;14.90;99.90;;;;;;5087933;28;20036;-67
2021/09/18 06:06:32;;;;;;;4.88;3.92;;;14.90;99.90;;;;;;5086106;28;20028;-67
2021/09/18 06:08:58;;;;;;;5.93;4.10;;;15.00;99.90;;;;;;5090147;28;20028;-68
2021/09/18 06:11:23;;;;;;;6.55;4.38;;;15.00;99.90;;;;;;5087014;28;20487;-67
2021/09/18 06:13:49;;;;;;;6.00;3.90;;;15.00;99.90;;;;;;5087543;28;20023;-67
2021/09/18 06:16:15;;;;;;;5.45;4.13;;;15.00;99.90;;;;;;5087210;28;20039;-67
2021/09/18 06:18:41;;;;;;;4.95;3.42;;;15.00;99.90;;;;;;5089511;28;20024;-67
2021/09/18 06:21:08;;;;;;;5.50;3.55;;;15.10;99.90;;;;;;5087928;28;20105;-67
2021/09/18 06:23:37;;;;;;;5.63;3.70;;;15.10;99.90;;;;;;5089355;28;20024;-67
2021/09/18 06:26:06;;;;;;;4.15;3.47;;;15.20;99.90;;;;;;5086584;28;20752;-67
2021/09/18 06:28:32;;;;;;;8.77;3.72;;;15.20;99.90;;;;;;5090146;28;20035;-67
2021/09/18 06:30:58;;;;;;;5.22;3.58;;;15.20;99.90;;;;;;5086587;28;20398;-65
2021/09/18 06:33:23;;;;;;;3.67;3.30;;;15.20;99.90;;;;;;5086896;28;20140;-67
2021/09/18 06:35:49;;;;;;;3.55;2.78;;;15.20;99.90;;;;;;5085803;28;20037;-66
2021/09/18 06:38:21;;;;;;;3.78;3.15;;;15.40;99.90;;;;;;5087952;28;20029;-66
2021/09/18 06:40:55;;;;;;;4.13;3.03;;;15.50;99.90;;;;;;5087233;28;20028;-66
2021/09/18 06:43:21;;;;;;;7.53;3.03;;;15.60;99.90;;;;;;5088843;28;20032;-66
2021/09/18 06:45:48;;;;;;;4.28;2.90;;;15.70;99.90;;;;;;5086534;28;20031;-66
2021/09/18 06:48:14;;;;;;;4.20;2.88;;;15.70;99.90;;;;;;5088496;28;20035;-66
2021/09/18 06:50:40;;;;;;;5.43;3.50;;;15.70;99.90;;;;;;5087984;28;20028;-66
2021/09/18 06:53:07;;;;;;;3.63;2.33;;;15.60;99.90;;;;;;5088158;28;20529;-66
2021/09/18 06:55:34;;;;;;;3.15;2.60;;;15.60;99.90;;;;;;5087048;28;20047;-66
2021/09/18 06:58:00;;;;;;;4.20;2.97;;;15.60;99.90;;;;;;5089123;28;20540;-66
2021/09/18 07:00:26;;;;;;;4.93;2.88;;;15.60;99.90;;;;;;5086470;28;20093;-66
2021/09/18 07:02:52;;;;;;;3.75;2.88;;;15.60;99.90;;;;;;5084476;28;20027;-66
2021/09/18 07:05:18;;;;;;;3.53;2.80;;;15.60;99.90;;;;;;5087468;28;20024;-65
2021/09/18 07:07:45;;;;;;;3.20;2.70;;;15.60;99.90;;;;;;5086856;28;20032;-66
2021/09/18 07:10:11;;;;;;;3.80;3.10;;;15.60;99.90;;;;;;5084892;28;20037;-66
2021/09/18 07:12:37;;;;;;;4.00;2.50;;;15.70;99.90;;;;;;5085773;28;20317;-65
2021/09/18 07:15:03;;;;;;;3.40;2.53;;;15.70;99.90;;;;;;5082779;28;20458;-66
2021/09/18 07:17:29;;;;;;;3.30;2.60;;;15.70;99.90;;;;;;5081718;28;20107;-66
2021/09/18 07:19:57;;;;;;;3.17;2.70;;;15.80;99.90;;;;;;5085447;28;20486;-66
2021/09/18 07:22:23;;;;;;;3.50;2.38;;;15.80;99.90;;;;;;5088753;28;20050;-64
2021/09/18 07:24:49;;;;;;;3.95;2.55;;;15.90;99.90;;;;;;5087500;28;20020;-65
2021/09/18 07:27:17;;;;;;;3.45;2.50;;;15.90;99.90;;;;;;5082554;28;20508;-67
2021/09/18 07:29:46;;;;;;;2.97;2.15;;;15.90;99.90;;;;;;5079844;28;20048;-67
2021/09/18 07:32:12;;;;;;;3.47;2.20;;;16.00;99.90;;;;;;5077497;28;20615;-67
2021/09/18 07:34:38;;;;;;;3.55;2.72;;;16.10;99.90;;;;;;5081783;28;20111;-69
2021/09/18 07:37:04;;;;;;;4.65;2.45;;;16.20;99.90;;;;;;5079264;28;20036;-67
2021/09/18 07:39:31;;;;;;;4.78;2.25;;;16.20;99.90;;;;;;5080601;28;20119;-67
2021/09/18 07:41:57;;;;;;;3.15;2.15;;;16.20;99.90;;;;;;5080235;28;20547;-67
2021/09/18 07:44:23;;;;;;;3.90;2.00;;;16.30;99.90;;;;;;5081590;28;20036;-67
2021/09/18 07:46:49;;;;;;;4.22;2.53;;;16.20;99.90;;;;;;5087295;28;20103;-67
2021/09/18 07:49:16;;;;;;;2.75;1.67;;;16.30;99.90;;;;;;5088084;28;20103;-67
2021/09/18 07:51:42;;;;;;;2.15;1.52;;;16.20;99.90;;;;;;5091741;28;20443;-67
2021/09/18 07:54:08;;;;;;;4.78;1.92;;;16.30;99.90;;;;;;5091905;28;20040;-67
2021/09/18 07:56:34;;;;;;;2.85;1.70;;;16.40;99.90;;;;;;5093404;28;20042;-66
2021/09/18 07:59:00;;;;;;;3.08;1.60;;;16.40;99.90;;;;;;5091345;28;20099;-67
2021/09/18 08:01:27;;;;;;;3.78;1.73;;;16.50;99.90;;;;;;5089146;28;20089;-66
2021/09/18 08:03:58;;;;;;;5.20;1.90;;;16.60;99.90;;;;;;5088772;28;20389;-67
2021/09/18 08:06:25;;;;;;;4.78;1.63;;;16.60;99.90;;;;;;5088326;28;20020;-68
2021/09/18 08:08:52;;;;;;;2.35;1.67;;;16.60;99.90;;;;;;5089743;28;20024;-66
2021/09/18 08:11:19;;;;;;;3.38;1.70;;;16.70;99.80;;;;;;5084663;28;20163;-66
2021/09/18 08:13:46;;;;;;;2.60;1.25;;;16.70;99.80;;;;;;5083151;28;20524;-69
2021/09/18 08:16:12;;;;;;;2.78;1.20;;;16.70;99.60;;;;;;5085766;28;20028;-66
2021/09/18 08:18:38;;;;;;;1.50;1.10;;;16.70;99.50;;;;;;5087129;28;20032;-67
2021/09/18 08:21:04;;;;;;;2.55;1.25;;;16.70;99.50;;;;;;5090158;28;20039;-66
2021/09/18 08:23:30;;;;;;;1.10;0.93;;;16.70;99.50;;;;;;5088105;28;20023;-66
2021/09/18 08:25:56;;;;;;;5.13;1.20;;;16.80;99.30;;;;;;5090200;28;20072;-67
2021/09/18 08:28:22;;;;;;;3.05;1.10;;;16.80;99.20;;;;;;5090214;28;20040;-67
2021/09/18 08:30:48;;;;;;;3.92;1.45;;;16.90;99.20;;;;;;5089395;28;20507;-67
2021/09/18 08:33:13;;;;;;;1.95;1.15;;;17.00;99.00;;;;;;5089552;28;20040;-66
2021/09/18 08:35:39;;;;;;;1.75;1.10;;;17.00;98.80;;;;;;5087868;28;20840;-75
2021/09/18 08:38:05;;;;;;;1.55;1.15;;;17.10;98.90;;;;;;5086033;28;20051;-67
2021/09/18 08:40:38;;;;;;;2.08;1.02;;;17.20;98.60;;;;;;5086458;28;20398;-67
2021/09/18 08:43:06;;;;;;;2.80;0.70;;;17.30;98.50;;;;;;5088891;28;20486;-66
2021/09/18 08:45:32;;;;;;;2.05;1.10;;;17.40;98.30;;;;;;5090049;28;20028;-66
2021/09/18 08:48:02;;;;;;;2.47;1.27;;;17.40;98.10;;;;;;5090151;28;20026;-66
2021/09/18 08:50:28;;;;;;;1.77;1.02;;;17.40;98.00;;;;;;5089818;28;20028;-66
2021/09/18 08:52:55;;;;;;;2.85;1.33;;;17.40;98.00;;;;;;5089980;28;20031;-66
2021/09/18 08:55:21;;;;;;;1.25;0.80;;;17.40;97.90;;;;;;5091197;28;20099;-66
2021/09/18 08:57:47;;;;;;;2.40;1.42;;;17.50;97.90;;;;;;5090216;28;20032;-66
2021/09/18 09:00:43;;;;;;;1.83;1.00;;;17.50;97.70;;;;;;5091281;28;20375;-66
2021/09/18 09:03:09;;;;;;;3.22;0.98;;;17.50;97.70;;;;;;5085096;28;20051;-66
2021/09/18 09:05:37;;;;;;;1.20;0.70;;;17.50;97.70;;;;;;5088650;28;20023;-66
2021/09/18 09:08:07;;;;;;;1.48;1.00;;;17.60;97.30;;;;;;5088624;28;20397;-66
2021/09/18 09:10:34;;;;;;;1.25;0.70;;;17.60;97.00;;;;;;5089150;28;20101;-67
2021/09/18 09:13:08;;;;;;;0.88;0.47;;;17.60;97.10;;;;;;5090838;28;20038;-68
2021/09/18 09:15:35;;;;;;;1.15;0.60;;;17.60;97.00;;;;;;5088991;28;20032;-66
2021/09/18 09:18:19;;;;;;;2.60;0.73;;;17.60;96.90;;;;;;5088541;28;20031;-66
2021/09/18 09:20:49;;;;;;;1.23;0.88;;;17.50;97.00;;;;;;5090948;28;20032;-66
2021/09/18 09:23:19;;;;;;;1.13;0.68;;;17.50;97.00;;;;;;5085600;28;20054;-67
2021/09/18 09:25:49;;;;;;;1.85;0.77;;;17.50;97.20;;;;;;5089501;28;20039;-66
2021/09/18 09:28:43;;;;;;;2.33;0.70;;;17.50;97.30;;;;;;5089027;28;20032;-67
2021/09/18 09:31:27;;;;;;;1.33;0.90;;;17.50;97.20;;;;;;5088415;28;20519;-67
2021/09/18 09:34:06;;;;;;;1.30;0.63;;;17.50;97.20;;;;;;5088604;28;20032;-67
2021/09/18 09:37:00;;;;;;;0.90;0.60;;;17.30;97.80;;;;;;5089623;28;20036;-67
2021/09/18 09:39:27;;;;;;;1.05;0.73;;;17.20;98.40;;;;;;5086659;28;20064;-67
2021/09/18 09:41:56;;;;;;;1.67;0.98;;;17.10;98.90;;;;;;5089524;28;20028;-66
2021/09/18 09:44:25;;;;;;;2.00;0.70;;;17.00;99.20;;;;;;5088360;28;20028;-67
2021/09/18 09:47:07;;;;;;;2.53;1.00;;;17.10;99.40;;;;;;5088334;28;20031;-66
2021/09/18 09:49:48;;;;;;;1.10;0.50;;;17.10;99.40;;;;;;5089419;28;20036;-66
2021/09/18 09:52:23;;;;;;;0.70;0.45;;;17.20;99.20;;;;;;5089604;28;20122;-66
2021/09/18 09:54:49;;;;;;;1.17;0.60;;;17.20;99.20;;;;;;5089873;28;20059;-67
2021/09/18 09:57:15;;;;;;;1.40;0.80;;;17.20;99.10;;;;;;5088482;28;20099;-71
2021/09/18 09:59:42;;;;;;;1.02;0.68;;;17.30;99.00;;;;;;5080106;28;20959;-67
2021/09/18 10:02:10;;;;;;;1.13;0.73;;;17.40;98.90;;;;;;5086515;28;20823;-67
2021/09/18 10:04:38;;;;;;;1.25;0.70;;;17.50;98.70;;;;;;5086111;28;20036;-67
2021/09/18 10:07:05;;;;;;;2.05;0.70;;;17.70;98.60;;;;;;5075053;28;20073;-67
2021/09/18 10:09:33;;;;;;;1.15;0.82;;;17.90;98.20;;;;;;5084135;28;20031;-69
2021/09/18 10:11:59;;;;;;;0.65;0.65;;;18.00;97.80;;;;;;5086606;28;20957;-70
2021/09/18 10:14:27;;;;;;;2.08;0.70;;;17.90;97.70;;;;;;5084901;28;20103;-70
2021/09/18 10:16:56;;;;;;;1.38;0.60;;;17.90;97.60;;;;;;5087343;28;20035;-70
2021/09/18 10:24:59;;;;;;;1.13;0.63;;;17.60;97.90;;;;;;5087381;28;20024;-70
2021/09/18 10:27:27;;;;;;;1.00;0.70;;;17.60;98.10;;;;;;5084928;28;20366;-67
2021/09/18 10:29:53;;;;;;;1.70;0.80;;;17.70;98.20;;;;;;5083553;28;20428;-67
2021/09/18 10:32:21;;;;;;;1.63;0.80;;;17.80;97.90;;;;;;5086587;28;20024;-67
2021/09/18 10:34:47;;;;;;;0.70;0.63;;;17.90;97.80;;;;;;5082147;28;20106;-70
2021/09/18 10:37:33;;;;;;;1.10;0.70;;;18.00;97.60;;;;;;5087399;28;20040;-66
2021/09/18 10:40:14;;;;;;;0.85;0.57;;;18.20;97.30;;;;;;5089243;28;20424;-66
2021/09/18 10:42:43;;;;;;;2.25;0.70;;;18.30;96.60;;;;;;5088201;28;20043;-67
2021/09/18 10:45:11;;;;;;;2.15;0.90;;;18.50;96.50;;;;;;5084386;28;20032;-67
2021/09/18 10:47:44;;;;;;;2.47;0.80;;;18.40;96.10;;;;;;5086281;28;20509;-66
2021/09/18 10:50:22;;;;;;;2.22;0.65;;;18.50;96.10;;;;;;5087248;28;20036;-66
2021/09/18 10:52:58;;;;;;;1.42;0.80;;;18.30;95.70;;;;;;5087592;28;20050;-66
2021/09/18 10:55:24;;;;;;;3.55;0.80;;;18.10;95.60;;;;;;5085647;28;20027;-66
2021/09/18 10:57:50;;;;;;;2.55;1.00;;;18.00;95.60;;;;;;5087325;28;20032;-66
2021/09/18 11:00:19;;;;;;;1.58;0.77;;;17.90;95.70;;;;;;5087638;28;20032;-66
2021/09/18 11:02:49;;;;;;;2.22;1.33;;;17.90;95.80;;;;;;5088652;28;20031;-67
2021/09/18 11:05:20;;;;;;;2.95;1.08;;;17.90;95.70;;;;;;5085547;28;20035;-66
2021/09/18 11:07:51;;;;;;;2.55;0.98;;;17.90;95.90;;;;;;5087304;28;20031;-67
2021/09/18 11:10:20;;;;;;;2.63;1.17;;;17.70;96.30;;;;;;5085869;28;20036;-67
2021/09/18 11:13:07;;;;;;;3.25;1.15;;;17.60;96.80;;;;;;5086682;28;20136;-67
2021/09/18 11:15:52;;;;;;;1.40;1.00;;;17.50;97.30;;;;;;5084566;28;20048;-66
2021/09/18 11:18:41;;;;;;;5.28;1.33;;;17.40;97.60;;;;;;5091997;28;20493;-66
2021/09/18 11:21:10;;;;;;;3.10;1.52;;;17.30;98.10;;;;;;5092859;28;20039;-66
2021/09/18 11:23:39;;;;;;;3.15;1.30;;;17.20;98.20;;;;;;5088712;28;20021;-66
2021/09/18 11:26:39;;;;;;;1.60;1.00;;;17.20;98.70;;;;;;5089165;28;20035;-66
2021/09/18 11:29:15;;;;;;;2.75;1.20;;;17.20;98.40;;;;;;5084513;28;20486;-67
2021/09/18 11:31:53;;;;;;;2.40;1.13;;;17.20;98.50;;;;;;5090724;28;20032;-66
2021/09/18 11:34:24;;;;;;;2.83;1.40;;;17.30;98.50;;;;;;5088389;28;20047;-66
2021/09/18 11:36:49;;;;;;;2.28;1.40;;;17.30;98.50;;;;;;5089496;28;20038;-66
2021/09/18 11:39:15;;;;;;;3.63;1.25;;;17.40;98.40;;;;;;5090945;28;20033;-66
2021/09/18 11:41:41;;;;;;;2.53;1.20;;;17.40;98.30;;;;;;5089674;28;20028;-66
2021/09/18 11:44:11;;;;;;;1.42;1.10;;;17.30;98.30;;;;;;5090333;28;20034;-66
2021/09/18 11:46:38;;;;;;;3.00;1.30;;;17.30;98.10;;;;;;5088058;28;20052;-65
2021/09/18 11:49:06;;;;;;;2.92;1.20;;;17.30;98.20;;;;;;5087467;28;20036;-66
2021/09/18 11:51:33;;;;;;;1.70;1.05;;;17.30;98.20;;;;;;5089129;28;20024;-66
2021/09/18 11:54:05;;;;;;;2.78;1.55;;;17.40;98.20;;;;;;5089979;28;20087;-66
2021/09/18 11:56:32;;;;;;;5.20;1.55;;;17.50;98.20;;;;;;5088736;28;20060;-65
2021/09/18 11:59:08;;;;;;;2.13;1.13;;;17.60;98.10;;;;;;5087089;28;20059;-65
2021/09/18 12:01:35;;;;;;;1.77;1.00;;;17.70;98.10;;;;;;5087137;28;20646;-65
2021/09/18 12:04:01;;;;;;;1.42;0.90;;;17.70;97.90;;;;;;5088347;28;20028;-66
2021/09/18 12:06:30;;;;;;;3.00;1.42;;;17.90;97.70;;;;;;5087986;28;20430;-66
2021/09/18 12:08:55;;;;;;;3.63;1.52;;;17.90;97.70;;;;;;5086590;28;20474;-65
2021/09/18 12:11:22;;;;;;;2.28;1.02;;;17.90;97.60;;;;;;5086791;28;20046;-65
2021/09/18 12:13:50;;;;;;;3.38;1.30;;;17.90;97.20;;;;;;5085263;28;20114;-66
2021/09/18 12:16:18;;;;;;;3.22;1.05;;;17.70;97.10;;;;;;5086814;28;20128;-65
2021/09/18 12:18:53;;;;;;;1.90;0.90;;;17.70;97.30;;;;;;5088943;28;20065;-65
2021/09/18 12:21:28;;;;;;;2.97;1.10;;;17.70;97.70;;;;;;5087228;28;20119;-65
2021/09/18 12:23:59;;;;;;;1.55;0.88;;;17.60;97.90;;;;;;5088135;28;20036;-66
2021/09/18 12:26:28;;;;;;;2.90;1.08;;;17.50;98.20;;;;;;5087324;28;20421;-65
2021/09/18 12:29:09;;;;;;;1.30;1.10;;;17.50;98.60;;;;;;5088756;28;20083;-65
2021/09/18 12:31:35;;;;;;;3.08;1.70;;;17.40;99.00;;;;;;5089564;28;20036;-65
2021/09/18 12:34:13;;;;;;;2.15;1.33;;;17.30;99.20;;;;;;5089872;28;20036;-65
2021/09/18 12:36:39;;;;;;;2.00;1.17;;;17.20;99.20;;;;;;5085616;28;20027;-65
2021/09/18 12:39:06;;;;;;;584.30;383.73;;;17.20;99.40;;;;;;5088366;28;20039;-65
2021/09/18 12:41:34;;;;;;;296.95;202.05;;;17.20;99.40;;;;;;5085592;28;20035;-65
2021/09/18 12:44:01;;;;;;;343.52;204.63;;;17.20;99.40;;;;;;5083916;28;20028;-65
2021/09/18 12:46:29;;;;;;;128.18;90.07;;;17.20;99.40;;;;;;5085633;28;20076;-65
2021/09/18 12:49:00;;;;;;;276.65;195.30;;;17.30;99.20;;;;;;5087477;28;20435;-65
2021/09/18 12:51:27;;;;;;;38.85;26.52;;;17.30;99.10;;;;;;5089879;28;20114;-65
2021/09/18 12:53:54;;;;;;;4.47;2.60;;;17.40;99.20;;;;;;5088528;28;20062;-65
2021/09/18 12:56:32;;;;;;;4.47;1.77;;;17.50;99.20;;;;;;5086045;28;20493;-65